Time;durP1;ratioP1;P1;durP2;ratioP2;P2;SDS_P1;SDS_P2;PMS_P1;PMS_P2;Temp;Humidity;BMP_temperature;BMP_pressure;BME280_temperature;BME280_humidity;BME280_pressure;Samples;Min_cycle;Max_cycle;Signal;HPM_P1;HPM_P2
2020/12/19 00:00:21;;;;;;;1.55;0.82;;;;;;;;;;4343013;32;20514;-79
2020/12/19 00:02:49;;;;;;;1.77;0.88;;;;;;;;;;4342794;32;20060;-80
2020/12/19 00:05:17;;;;;;;3.22;0.82;;;;;;;;;;4341630;32;20061;-80
2020/12/19 00:07:45;;;;;;;1.85;0.95;;;;;;;;;;4348124;33;20401;-79
2020/12/19 00:10:14;;;;;;;5.28;1.00;;;;;;;;;;4347875;33;20126;-79
2020/12/19 00:12:45;;;;;;;8.32;1.25;;;;;;;;;;4341906;32;20095;-80
2020/12/19 00:15:14;;;;;;;1.40;0.68;;;;;;;;;;4347151;32;20088;-79
2020/12/19 00:17:43;;;;;;;3.05;0.50;;;;;;;;;;4344642;32;20770;-80
2020/12/19 00:20:11;;;;;;;1.65;0.40;;;;;;;;;;4351014;32;20332;-80
2020/12/19 00:22:40;;;;;;;3.33;0.50;;;;;;;;;;4350691;32;20063;-79
2020/12/19 00:25:08;;;;;;;1.17;0.62;;;;;;;;;;4346896;32;20537;-79
2020/12/19 00:27:36;;;;;;;1.17;0.57;;;;;;;;;;4343901;32;20094;-80
2020/12/19 00:30:05;;;;;;;10.00;1.05;;;;;;;;;;4337843;32;20549;-81
2020/12/19 00:32:34;;;;;;;0.98;0.60;;;;;;;;;;4354442;32;20111;-79
2020/12/19 00:35:03;;;;;;;1.08;0.32;;;;;;;;;;4351585;32;20091;-80
2020/12/19 00:37:31;;;;;;;2.00;0.50;;;;;;;;;;4351284;32;20069;-80
2020/12/19 00:39:59;;;;;;;3.15;0.40;;;;;;;;;;4351493;32;20230;-80
2020/12/19 00:42:28;;;;;;;0.98;0.40;;;;;;;;;;4352498;32;20052;-79
2020/12/19 00:44:56;;;;;;;2.37;0.60;;;;;;;;;;4355499;32;20067;-79
2020/12/19 00:47:24;;;;;;;3.95;0.68;;;;;;;;;;4345781;32;20060;-80
2020/12/19 00:49:53;;;;;;;5.28;0.40;;;;;;;;;;4354102;32;20442;-80
2020/12/19 00:52:21;;;;;;;1.67;0.43;;;;;;;;;;4345552;32;20192;-79
2020/12/19 00:54:49;;;;;;;3.50;0.60;;;;;;;;;;4347763;32;20051;-80
2020/12/19 00:57:17;;;;;;;2.65;0.50;;;;;;;;;;4353200;32;20055;-79
2020/12/19 00:59:46;;;;;;;4.15;0.55;;;;;;;;;;4356288;32;20067;-79
2020/12/19 01:02:15;;;;;;;5.47;0.60;;;;;;;;;;4349869;32;20051;-80
2020/12/19 01:04:43;;;;;;;1.85;0.45;;;;;;;;;;4355281;32;20047;-80
2020/12/19 01:07:11;;;;;;;1.20;0.22;;;;;;;;;;4351430;32;20315;-79
2020/12/19 01:09:40;;;;;;;3.80;0.60;;;;;;;;;;4354750;32;20093;-79
2020/12/19 01:12:08;;;;;;;0.85;0.40;;;;;;;;;;4352667;32;21868;-79
2020/12/19 01:14:36;;;;;;;1.40;0.40;;;;;;;;;;4354514;32;20071;-80
2020/12/19 01:17:05;;;;;;;1.02;0.52;;;;;;;;;;4349897;32;20160;-79
2020/12/19 01:19:33;;;;;;;3.72;0.60;;;;;;;;;;4352269;32;20375;-80
2020/12/19 01:22:02;;;;;;;1.77;0.40;;;;;;;;;;4346173;32;20040;-79
2020/12/19 01:24:30;;;;;;;0.60;0.40;;;;;;;;;;4346714;32;20103;-80
2020/12/19 01:26:58;;;;;;;1.40;0.40;;;;;;;;;;4351795;33;20118;-79
2020/12/19 01:29:27;;;;;;;0.90;0.68;;;;;;;;;;4353101;32;20058;-79
2020/12/19 01:31:55;;;;;;;1.02;0.43;;;;;;;;;;4350415;32;20085;-79
2020/12/19 01:34:23;;;;;;;1.40;0.32;;;;;;;;;;4353036;32;20071;-79
2020/12/19 01:36:51;;;;;;;5.00;1.42;;;;;;;;;;4348908;32;20536;-79
2020/12/19 01:39:20;;;;;;;1.27;0.62;;;;;;;;;;4353327;32;20109;-80
2020/12/19 01:41:48;;;;;;;1.70;0.50;;;;;;;;;;4350996;32;20382;-81
2020/12/19 01:44:17;;;;;;;0.85;0.60;;;;;;;;;;4351986;32;20054;-79
2020/12/19 01:46:56;;;;;;;1.25;0.45;;;;;;;;;;4355849;32;20489;-80
2020/12/19 01:49:29;;;;;;;6.75;0.60;;;;;;;;;;4351628;33;20125;-80
2020/12/19 01:51:58;;;;;;;0.98;0.40;;;;;;;;;;4352142;32;20059;-79
2020/12/19 01:54:27;;;;;;;0.30;0.30;;;;;;;;;;4345082;32;20118;-79
2020/12/19 01:56:56;;;;;;;3.30;0.85;;;;;;;;;;4351290;32;20149;-80
2020/12/19 01:59:25;;;;;;;0.20;0.20;;;;;;;;;;4332568;32;20129;-80
2020/12/19 02:01:55;;;;;;;2.40;2.30;;;;;;;;;;4345342;32;20086;-79
2020/12/19 02:04:25;;;;;;;2.65;1.87;;;;;;;;;;4355698;32;20094;-79
2020/12/19 02:06:54;;;;;;;5.40;2.80;;;;;;;;;;4351352;32;20051;-79
2020/12/19 02:09:24;;;;;;;3.47;3.25;;;;;;;;;;4351702;32;20048;-79
2020/12/19 02:11:53;;;;;;;2.90;2.65;;;;;;;;;;4347640;32;20098;-79
2020/12/19 02:14:21;;;;;;;2.67;0.43;;;;;;;;;;4351174;32;20048;-79
2020/12/19 02:16:53;;;;;;;2.87;0.50;;;;;;;;;;4353527;32;20055;-80
2020/12/19 02:19:22;;;;;;;3.03;0.45;;;;;;;;;;4348504;32;20122;-80
2020/12/19 02:21:50;;;;;;;1.77;0.50;;;;;;;;;;4349166;32;20133;-80
2020/12/19 02:24:19;;;;;;;0.77;0.50;;;;;;;;;;4350222;32;20592;-79
2020/12/19 02:26:55;;;;;;;3.37;0.50;;;;;;;;;;4349933;32;20059;-80
2020/12/19 02:29:24;;;;;;;5.30;0.62;;;;;;;;;;4351434;33;20077;-80
2020/12/19 02:31:54;;;;;;;1.05;0.40;;;;;;;;;;4343965;32;20190;-80
2020/12/19 02:34:22;;;;;;;2.83;0.40;;;;;;;;;;4356556;32;20047;-79
2020/12/19 02:36:50;;;;;;;2.85;0.50;;;;;;;;;;4352443;32;20434;-79
2020/12/19 02:39:20;;;;;;;2.85;0.80;;;;;;;;;;4354028;33;20078;-79
2020/12/19 02:41:48;;;;;;;3.70;0.60;;;;;;;;;;4341864;32;20040;-80
2020/12/19 02:44:19;;;;;;;1.75;0.65;;;;;;;;;;4344577;32;20055;-80
2020/12/19 02:46:48;;;;;;;2.60;0.52;;;;;;;;;;4345795;33;20126;-80
2020/12/19 02:49:17;;;;;;;1.55;0.62;;;;;;;;;;4354328;33;20074;-79
2020/12/19 02:51:45;;;;;;;0.93;0.50;;;;;;;;;;4345372;32;20103;-81
2020/12/19 02:54:14;;;;;;;1.48;0.50;;;;;;;;;;4356331;32;20051;-80
2020/12/19 02:56:42;;;;;;;2.05;0.40;;;;;;;;;;4350159;32;20047;-79
2020/12/19 02:59:10;;;;;;;4.85;0.47;;;;;;;;;;4351864;32;20047;-79
2020/12/19 03:01:39;;;;;;;5.87;0.57;;;;;;;;;;4346119;32;20139;-81
2020/12/19 03:04:07;;;;;;;0.68;0.40;;;;;;;;;;4349763;32;20089;-80
2020/12/19 03:06:35;;;;;;;0.65;0.40;;;;;;;;;;4350750;32;20065;-79
2020/12/19 03:09:04;;;;;;;4.97;0.80;;;;;;;;;;4348501;32;20454;-80
2020/12/19 03:11:32;;;;;;;1.83;0.57;;;;;;;;;;4377666;27;20055;-94
2020/12/19 03:14:02;;;;;;;0.77;0.35;;;;;;;;;;4339702;32;20496;-96
2020/12/19 03:16:31;;;;;;;0.90;0.52;;;;;;;;;;4319093;33;20490;-96
2020/12/19 03:19:06;;;;;;;2.70;0.60;;;;;;;;;;4325990;33;20103;-95
2020/12/19 03:21:43;;;;;;;1.17;0.60;;;;;;;;;;4300603;33;20099;-96
2020/12/19 03:24:24;;;;;;;0.65;0.40;;;;;;;;;;4326617;33;20060;-94
2020/12/19 03:27:02;;;;;;;3.50;0.85;;;;;;;;;;4325655;33;20641;-94
2020/12/19 03:29:35;;;;;;;2.00;0.40;;;;;;;;;;4327946;33;20060;-95
2020/12/19 03:32:14;;;;;;;1.45;0.50;;;;;;;;;;4338569;33;20068;-95
2020/12/19 03:34:43;;;;;;;2.90;0.70;;;;;;;;;;4339199;33;20428;-94
2020/12/19 03:37:11;;;;;;;4.53;0.57;;;;;;;;;;4349006;32;20051;-96
2020/12/19 03:39:40;;;;;;;2.35;0.60;;;;;;;;;;4339727;33;20082;-94
2020/12/19 03:42:12;;;;;;;1.23;0.47;;;;;;;;;;4344905;33;20071;-94
2020/12/19 03:44:43;;;;;;;2.87;0.60;;;;;;;;;;4333576;33;20125;-96
2020/12/19 03:47:13;;;;;;;1.12;0.52;;;;;;;;;;4336686;33;20761;-95
2020/12/19 03:49:41;;;;;;;5.15;0.80;;;;;;;;;;4340681;33;20143;-94
2020/12/19 03:52:12;;;;;;;3.00;0.80;;;;;;;;;;4338716;33;20059;-94
2020/12/19 03:54:42;;;;;;;1.45;0.70;;;;;;;;;;4327970;33;20052;-96
2020/12/19 03:57:18;;;;;;;2.58;0.70;;;;;;;;;;4339791;33;20064;-95
2020/12/19 03:59:51;;;;;;;1.35;0.80;;;;;;;;;;4339015;33;20417;-96
2020/12/19 04:02:20;;;;;;;2.17;0.37;;;;;;;;;;4312462;33;20069;-95
2020/12/19 04:04:53;;;;;;;3.20;0.60;;;;;;;;;;4344512;33;20480;-95
2020/12/19 04:07:21;;;;;;;2.28;1.00;;;;;;;;;;4316595;33;20060;-95
2020/12/19 04:09:52;;;;;;;0.45;0.45;;;;;;;;;;4347318;32;20099;-95
2020/12/19 04:12:21;;;;;;;3.47;0.43;;;;;;;;;;4344117;33;20055;-93
2020/12/19 04:14:50;;;;;;;7.40;0.62;;;;;;;;;;4316203;33;20111;-94
2020/12/19 04:17:26;;;;;;;3.80;0.62;;;;;;;;;;4317351;33;20066;-95
2020/12/19 04:20:06;;;;;;;3.67;0.70;;;;;;;;;;4319891;33;20763;-94
2020/12/19 04:22:34;;;;;;;1.85;0.50;;;;;;;;;;4342652;33;20091;-96
2020/12/19 04:25:11;;;;;;;0.37;0.30;;;;;;;;;;4344575;33;20051;-95
2020/12/19 04:27:42;;;;;;;4.85;1.25;;;;;;;;;;4320485;33;20400;-94
2020/12/19 04:30:11;;;;;;;2.33;0.80;;;;;;;;;;4315054;33;20771;-95
2020/12/19 04:32:45;;;;;;;1.02;0.88;;;;;;;;;;4341262;33;20391;-94
2020/12/19 04:35:14;;;;;;;0.73;0.70;;;;;;;;;;4328521;33;20249;-95
2020/12/19 04:37:44;;;;;;;1.87;1.00;;;;;;;;;;4318981;33;20056;-94
2020/12/19 04:40:14;;;;;;;5.00;0.95;;;;;;;;;;4334775;33;20862;-95
2020/12/19 04:42:45;;;;;;;3.08;0.80;;;;;;;;;;4353595;32;20152;-96
2020/12/19 04:45:18;;;;;;;4.65;0.62;;;;;;;;;;4344118;33;20123;-95
2020/12/19 04:47:48;;;;;;;3.85;0.52;;;;;;;;;;4333517;33;20068;-94
2020/12/19 04:50:19;;;;;;;0.40;0.40;;;;;;;;;;4331832;33;20078;-94
2020/12/19 04:52:48;;;;;;;1.55;0.57;;;;;;;;;;4339580;33;20067;-95
2020/12/19 04:55:16;;;;;;;2.00;0.45;;;;;;;;;;4329201;33;20066;-94
2020/12/19 04:57:51;;;;;;;1.65;0.50;;;;;;;;;;4338713;33;20104;-94
2020/12/19 05:00:21;;;;;;;1.85;0.90;;;;;;;;;;4317282;33;20091;-96
2020/12/19 05:02:57;;;;;;;1.62;0.50;;;;;;;;;;4335184;33;20103;-94
2020/12/19 05:05:41;;;;;;;5.80;0.60;;;;;;;;;;4338307;33;20068;-94
2020/12/19 05:08:13;;;;;;;2.20;0.50;;;;;;;;;;4339120;33;20075;-95
2020/12/19 05:10:49;;;;;;;3.97;0.60;;;;;;;;;;4317793;33;20767;-95
2020/12/19 05:13:22;;;;;;;3.37;0.40;;;;;;;;;;4341795;33;20108;-94
2020/12/19 05:15:51;;;;;;;10.55;1.48;;;;;;;;;;4346743;33;20544;-95
2020/12/19 05:18:22;;;;;;;1.75;0.62;;;;;;;;;;4339865;33;20060;-95
2020/12/19 05:20:53;;;;;;;1.65;0.60;;;;;;;;;;4338164;33;20091;-95
2020/12/19 05:23:35;;;;;;;7.87;0.88;;;;;;;;;;4334915;33;20067;-94
2020/12/19 05:26:10;;;;;;;1.45;0.62;;;;;;;;;;4339915;33;20098;-94
2020/12/19 05:28:45;;;;;;;1.55;0.62;;;;;;;;;;4341748;33;20073;-96
2020/12/19 05:31:13;;;;;;;1.85;0.75;;;;;;;;;;4343661;33;20154;-95
2020/12/19 05:33:43;;;;;;;2.67;0.40;;;;;;;;;;4340619;33;20096;-93
2020/12/19 05:36:21;;;;;;;0.52;0.30;;;;;;;;;;4343664;33;20072;-96
2020/12/19 05:39:05;;;;;;;1.08;0.30;;;;;;;;;;4345539;33;20203;-96
2020/12/19 05:41:49;;;;;;;2.05;0.30;;;;;;;;;;4342768;33;20094;-95
2020/12/19 05:44:27;;;;;;;0.88;0.40;;;;;;;;;;4343309;33;20079;-96
2020/12/19 05:47:10;;;;;;;2.05;0.50;;;;;;;;;;4313506;33;20092;-94
2020/12/19 05:49:49;;;;;;;0.43;0.40;;;;;;;;;;4346080;32;20071;-96
2020/12/19 05:52:18;;;;;;;1.92;0.40;;;;;;;;;;4341198;33;20107;-96
2020/12/19 05:54:57;;;;;;;1.70;0.85;;;;;;;;;;4340602;33;20094;-96
2020/12/19 05:57:27;;;;;;;2.05;0.47;;;;;;;;;;4330722;33;20074;-96
2020/12/19 05:59:58;;;;;;;2.83;0.75;;;;;;;;;;4344640;32;20112;-95
2020/12/19 06:02:39;;;;;;;2.28;0.60;;;;;;;;;;4344427;33;20068;-96
2020/12/19 06:05:26;;;;;;;2.83;0.62;;;;;;;;;;4349969;33;20056;-96
2020/12/19 06:08:19;;;;;;;0.50;0.40;;;;;;;;;;4343718;33;20120;-96
2020/12/19 06:11:14;;;;;;;4.10;0.95;;;;;;;;;;4344812;33;20124;-96
2020/12/19 06:13:52;;;;;;;1.33;0.55;;;;;;;;;;4343907;33;20052;-95
2020/12/19 06:16:22;;;;;;;0.30;0.30;;;;;;;;;;4342943;33;20072;-96
2020/12/19 06:18:56;;;;;;;0.75;0.68;;;;;;;;;;4316011;33;20878;-94
2020/12/19 06:21:34;;;;;;;0.40;0.40;;;;;;;;;;4318286;33;20079;-95
2020/12/19 06:24:04;;;;;;;3.70;0.70;;;;;;;;;;4334945;33;20052;-95
2020/12/19 06:26:37;;;;;;;5.47;0.73;;;;;;;;;;4336752;33;20757;-95
2020/12/19 06:29:07;;;;;;;2.45;0.73;;;;;;;;;;4339192;33;20190;-93
2020/12/19 06:31:38;;;;;;;3.33;0.60;;;;;;;;;;4349558;32;20075;-96
2020/12/19 06:34:06;;;;;;;2.17;0.50;;;;;;;;;;4337618;33;20480;-95
2020/12/19 06:36:36;;;;;;;0.75;0.45;;;;;;;;;;4350180;33;20059;-96
2020/12/19 06:39:07;;;;;;;1.10;0.40;;;;;;;;;;4341755;33;20085;-94
2020/12/19 06:41:45;;;;;;;1.40;0.50;;;;;;;;;;4336020;33;20116;-95
2020/12/19 06:44:28;;;;;;;1.15;0.52;;;;;;;;;;4336733;33;20103;-95
2020/12/19 06:46:58;;;;;;;2.80;0.70;;;;;;;;;;4341466;33;20123;-95
2020/12/19 06:49:31;;;;;;;0.30;0.30;;;;;;;;;;4318217;33;20487;-95
2020/12/19 06:52:09;;;;;;;1.10;0.70;;;;;;;;;;4342986;32;20090;-96
2020/12/19 06:54:48;;;;;;;2.72;0.50;;;;;;;;;;4340014;33;20140;-95
2020/12/19 06:57:23;;;;;;;3.47;0.82;;;;;;;;;;4337282;33;20060;-96
2020/12/19 06:59:55;;;;;;;3.83;0.90;;;;;;;;;;4343259;32;20130;-95
2020/12/19 07:02:24;;;;;;;4.82;0.88;;;;;;;;;;4331011;33;20807;-92
2020/12/19 07:04:58;;;;;;;1.50;0.40;;;;;;;;;;4345308;32;20064;-93
2020/12/19 07:07:26;;;;;;;0.93;0.55;;;;;;;;;;4332520;33;20153;-92
2020/12/19 07:10:00;;;;;;;1.52;0.50;;;;;;;;;;4344063;32;20060;-92
2020/12/19 07:12:32;;;;;;;1.08;0.62;;;;;;;;;;4330435;33;20094;-93
2020/12/19 07:15:05;;;;;;;3.20;0.68;;;;;;;;;;4340486;33;20099;-95
2020/12/19 07:17:46;;;;;;;7.35;1.45;;;;;;;;;;4319487;33;20075;-92
2020/12/19 07:20:33;;;;;;;;;;;;;;;;;;;;;
2020/12/19 07:23:04;;;;;;;2.53;0.77;;;;;;;;;;4334134;33;20083;-95
2020/12/19 07:25:39;;;;;;;1.65;0.68;;;;;;;;;;4337913;33;20071;-96
2020/12/19 07:28:13;;;;;;;2.72;0.93;;;;;;;;;;4315754;33;20056;-96
2020/12/19 07:30:49;;;;;;;1.62;0.90;;;;;;;;;;4350784;32;20699;-96
2020/12/19 07:33:21;;;;;;;5.00;1.50;;;;;;;;;;4331620;33;20497;-96
2020/12/19 07:35:52;;;;;;;5.03;0.85;;;;;;;;;;4319861;33;20096;-96
2020/12/19 07:38:25;;;;;;;6.53;1.15;;;;;;;;;;4321863;33;20461;-96
2020/12/19 07:40:54;;;;;;;1.15;0.88;;;;;;;;;;4316631;33;20620;-96
2020/12/19 07:43:23;;;;;;;3.28;1.05;;;;;;;;;;4327546;33;20048;-94
2020/12/19 07:45:58;;;;;;;3.45;1.40;;;;;;;;;;4340785;33;20075;-93
2020/12/19 07:48:29;;;;;;;1.33;0.40;;;;;;;;;;4334778;33;20065;-91
2020/12/19 07:51:06;;;;;;;4.95;0.62;;;;;;;;;;4324744;33;20378;-93
2020/12/19 07:53:44;;;;;;;4.95;0.50;;;;;;;;;;4349827;33;20121;-95
2020/12/19 07:56:12;;;;;;;4.90;0.60;;;;;;;;;;4346349;33;20052;-93
2020/12/19 07:58:44;;;;;;;0.60;0.50;;;;;;;;;;4338048;33;20060;-95
2020/12/19 08:01:12;;;;;;;0.95;0.62;;;;;;;;;;4329914;33;20072;-95
2020/12/19 08:03:42;;;;;;;1.85;0.50;;;;;;;;;;4341752;33;20052;-95
2020/12/19 08:06:10;;;;;;;1.08;0.50;;;;;;;;;;4340129;33;20094;-96
2020/12/19 08:08:38;;;;;;;1.20;0.70;;;;;;;;;;4340021;33;20056;-96
2020/12/19 08:11:07;;;;;;;8.18;1.85;;;;;;;;;;4318502;33;20137;-96
2020/12/19 08:13:35;;;;;;;3.28;1.70;;;;;;;;;;4314414;33;20385;-96
2020/12/19 08:16:03;;;;;;;3.60;3.20;;;;;;;;;;4329196;33;20666;-96
2020/12/19 08:18:33;;;;;;;0.70;0.50;;;;;;;;;;4352067;33;20088;-95
2020/12/19 08:21:01;;;;;;;2.70;2.60;;;;;;;;;;4355768;32;20110;-95
2020/12/19 08:23:30;;;;;;;4.10;2.90;;;;;;;;;;4352204;33;20048;-96
2020/12/19 08:25:58;;;;;;;2.20;1.45;;;;;;;;;;4334844;33;20107;-94
2020/12/19 08:28:27;;;;;;;3.40;2.45;;;;;;;;;;4341751;33;20067;-94
2020/12/19 08:30:55;;;;;;;1.83;0.57;;;;;;;;;;4337725;33;20056;-95
2020/12/19 08:33:24;;;;;;;4.90;2.95;;;;;;;;;;4353157;33;20115;-95
2020/12/19 08:35:52;;;;;;;3.30;1.80;;;;;;;;;;4320213;33;20052;-96
2020/12/19 08:38:26;;;;;;;2.78;2.58;;;;;;;;;;4347582;33;20081;-95
2020/12/19 08:40:56;;;;;;;2.00;0.55;;;;;;;;;;4328428;33;20478;-95
2020/12/19 08:43:39;;;;;;;0.50;0.40;;;;;;;;;;4343685;33;20449;-96
2020/12/19 08:46:09;;;;;;;3.58;3.10;;;;;;;;;;4338473;33;20436;-96
2020/12/19 08:48:38;;;;;;;5.20;1.48;;;;;;;;;;4330579;33;20437;-95
2020/12/19 08:51:10;;;;;;;2.75;1.08;;;;;;;;;;4352434;33;20056;-96
2020/12/19 08:53:39;;;;;;;2.22;2.10;;;;;;;;;;4319787;33;20106;-95
2020/12/19 08:56:18;;;;;;;3.17;2.50;;;;;;;;;;4356246;32;20055;-95
2020/12/19 08:58:54;;;;;;;10.75;10.07;;;;;;;;;;4349700;33;20497;-96
2020/12/19 09:01:23;;;;;;;2.22;1.48;;;;;;;;;;4339786;33;20489;-96
2020/12/19 09:03:54;;;;;;;7.55;6.90;;;;;;;;;;4352731;33;20136;-96
2020/12/19 09:06:22;;;;;;;3.50;3.17;;;;;;;;;;4319350;33;20052;-96
2020/12/19 09:08:50;;;;;;;2.72;2.53;;;;;;;;;;4319886;33;20501;-96
2020/12/19 09:11:27;;;;;;;1.33;1.23;;;;;;;;;;4329264;33;20494;-94
2020/12/19 09:14:09;;;;;;;4.93;1.40;;;;;;;;;;4323993;33;20115;-94
2020/12/19 09:16:48;;;;;;;4.80;2.50;;;;;;;;;;4337304;33;20108;-93
2020/12/19 09:19:16;;;;;;;3.10;2.80;;;;;;;;;;4314719;33;20110;-93
2020/12/19 09:21:55;;;;;;;2.20;2.00;;;;;;;;;;4337574;33;20065;-95
2020/12/19 09:24:26;;;;;;;7.57;7.03;;;;;;;;;;4326547;33;20100;-93
2020/12/19 09:26:55;;;;;;;2.83;2.58;;;;;;;;;;4350458;32;20060;-93
2020/12/19 09:29:26;;;;;;;4.60;4.32;;;;;;;;;;4336749;33;20696;-94
2020/12/19 09:31:54;;;;;;;8.48;7.93;;;;;;;;;;4336819;33;20143;-94
2020/12/19 09:34:25;;;;;;;4.28;4.05;;;;;;;;;;4312925;33;20080;-95
2020/12/19 09:36:56;;;;;;;0.45;0.40;;;;;;;;;;4325948;33;20102;-94
2020/12/19 09:39:25;;;;;;;1.27;0.57;;;;;;;;;;4326638;33;20064;-96
2020/12/19 09:41:55;;;;;;;0.98;0.40;;;;;;;;;;4325746;33;20056;-94
2020/12/19 09:44:23;;;;;;;1.52;0.75;;;;;;;;;;4309697;33;20138;-94
2020/12/19 09:46:52;;;;;;;1.27;0.98;;;;;;;;;;4352835;33;20098;-96
2020/12/19 09:49:20;;;;;;;1.65;0.30;;;;;;;;;;4338513;33;20540;-94
2020/12/19 09:51:48;;;;;;;0.47;0.30;;;;;;;;;;4348056;32;20075;-95
2020/12/19 09:54:20;;;;;;;1.02;0.40;;;;;;;;;;4312277;33;20104;-94
2020/12/19 09:56:49;;;;;;;2.85;0.70;;;;;;;;;;4334225;33;20087;-95
2020/12/19 09:59:21;;;;;;;3.03;0.70;;;;;;;;;;4333202;33;20069;-93
2020/12/19 10:01:49;;;;;;;1.05;0.60;;;;;;;;;;4334981;33;20044;-94
2020/12/19 10:04:22;;;;;;;1.95;0.80;;;;;;;;;;4330233;33;20073;-94
2020/12/19 10:06:50;;;;;;;0.90;0.60;;;;;;;;;;4334844;33;20071;-94
2020/12/19 10:09:19;;;;;;;3.80;0.90;;;;;;;;;;4324767;33;20061;-94
2020/12/19 10:11:48;;;;;;;1.10;0.40;;;;;;;;;;4336795;33;20049;-94
2020/12/19 10:14:18;;;;;;;1.60;0.60;;;;;;;;;;4322061;33;20389;-94
2020/12/19 10:16:51;;;;;;;2.47;0.50;;;;;;;;;;4329647;33;20067;-94
2020/12/19 10:19:19;;;;;;;0.40;0.40;;;;;;;;;;4346549;32;20460;-93
2020/12/19 10:21:47;;;;;;;3.45;0.40;;;;;;;;;;4342887;33;20048;-96
2020/12/19 10:24:16;;;;;;;1.70;0.70;;;;;;;;;;4314613;33;20425;-94
2020/12/19 10:26:50;;;;;;;1.45;0.50;;;;;;;;;;4335736;33;20099;-94
2020/12/19 10:29:19;;;;;;;5.37;0.70;;;;;;;;;;4330978;33;20075;-96
2020/12/19 10:31:48;;;;;;;2.75;0.60;;;;;;;;;;4352135;32;20272;-93
2020/12/19 10:34:17;;;;;;;0.73;0.50;;;;;;;;;;4314390;33;20060;-93
2020/12/19 10:36:50;;;;;;;1.83;0.77;;;;;;;;;;4340627;33;20087;-91
2020/12/19 10:39:21;;;;;;;2.42;0.60;;;;;;;;;;4327781;33;20065;-94
2020/12/19 10:41:50;;;;;;;1.55;0.40;;;;;;;;;;4318177;33;20086;-95
2020/12/19 10:44:18;;;;;;;0.40;0.40;;;;;;;;;;4335562;33;20068;-93
2020/12/19 10:46:46;;;;;;;0.98;0.50;;;;;;;;;;4326846;33;20063;-94
2020/12/19 10:49:20;;;;;;;2.47;1.48;;;;;;;;;;4345115;33;20124;-94
2020/12/19 10:51:50;;;;;;;4.68;1.08;;;;;;;;;;4337371;33;20053;-95
2020/12/19 19:20:32;;;;;;;3.83;1.75;;;;;;;;;;5271193;27;20041;-96
2020/12/19 19:23:00;;;;;;;4.90;1.30;;;;;;;;;;5266702;27;20037;-94
2020/12/19 19:25:38;;;;;;;6.12;1.25;;;;;;;;;;5286589;27;20433;-96
2020/12/19 19:28:36;;;;;;;;;;;;;;;;;;;;;
2020/12/19 19:31:32;;;;;;;5.90;1.73;;;;;;;;;;5287238;27;20022;-96
2020/12/19 19:34:47;;;;;;;5.62;1.02;;;;;;;;;;5286074;27;20430;-96
2020/12/19 19:47:39;;;;;;;5.75;1.73;;;;;;;;;;5323792;27;20070;-96
2020/12/19 19:51:15;;;;;;;3.17;1.00;;;;;;;;;;5258908;27;20067;-96
2020/12/19 19:57:40;;;;;;;3.75;1.25;;;;;;;;;;5306749;27;20048;-94
2020/12/19 20:00:09;;;;;;;5.80;1.20;;;;;;;;;;5285621;27;20036;-94
2020/12/19 20:02:38;;;;;;;6.20;1.20;;;;;;;;;;5263961;27;20066;-96
2020/12/19 20:05:07;;;;;;;2.80;1.30;;;;;;;;;;5266068;27;20054;-94
2020/12/19 20:07:35;;;;;;;4.78;1.25;;;;;;;;;;5264013;27;20035;-96
2020/12/19 20:10:04;;;;;;;10.18;2.20;;;;;;;;;;5263210;27;20043;-93
2020/12/19 20:12:33;;;;;;;7.50;1.30;;;;;;;;;;5281683;27;20040;-94
2020/12/19 20:15:02;;;;;;;6.40;1.42;;;;;;;;;;5283667;27;20044;-94
2020/12/19 20:17:30;;;;;;;4.90;1.35;;;;;;;;;;5304051;27;20047;-93
2020/12/19 20:19:58;;;;;;;3.35;1.42;;;;;;;;;;5265638;27;20432;-94
2020/12/19 20:22:27;;;;;;;4.62;1.15;;;;;;;;;;5264418;27;20135;-92
2020/12/19 20:24:59;;;;;;;1.58;0.60;;;;;;;;;;5265649;27;20084;-96
2020/12/19 20:27:27;;;;;;;0.95;0.73;;;;;;;;;;5263505;27;20071;-93
2020/12/19 20:30:14;;;;;;;2.35;0.90;;;;;;;;;;5239620;27;20059;-95
2020/12/19 20:32:42;;;;;;;6.07;1.00;;;;;;;;;;5249113;27;20493;-95
2020/12/19 20:35:11;;;;;;;3.35;0.60;;;;;;;;;;5243901;27;20063;-96
2020/12/19 20:37:39;;;;;;;3.42;1.20;;;;;;;;;;5286071;27;20033;-94
2020/12/19 20:40:08;;;;;;;2.37;0.88;;;;;;;;;;5305947;27;20063;-94
2020/12/19 20:42:42;;;;;;;5.37;1.10;;;;;;;;;;5260882;27;20036;-95
2020/12/19 20:45:11;;;;;;;2.50;0.80;;;;;;;;;;5270330;27;20025;-94
2020/12/19 20:47:39;;;;;;;5.28;1.05;;;;;;;;;;5280055;27;20040;-96
2020/12/19 20:50:08;;;;;;;4.20;1.20;;;;;;;;;;5278830;27;20060;-94
2020/12/19 20:52:39;;;;;;;5.65;1.30;;;;;;;;;;5277907;27;20477;-95
2020/12/19 20:55:10;;;;;;;4.43;0.90;;;;;;;;;;5299843;27;20084;-93
2020/12/19 20:57:40;;;;;;;3.30;0.75;;;;;;;;;;5278874;27;20040;-94
2020/12/19 21:00:08;;;;;;;3.08;1.10;;;;;;;;;;5275067;27;20041;-96
2020/12/19 21:02:43;;;;;;;2.47;0.70;;;;;;;;;;5278350;27;20029;-92
2020/12/19 21:05:16;;;;;;;1.30;0.85;;;;;;;;;;5297838;27;20025;-93
2020/12/19 21:07:44;;;;;;;4.20;0.80;;;;;;;;;;5278517;27;20022;-94
2020/12/19 21:10:13;;;;;;;2.05;0.80;;;;;;;;;;5296164;27;20025;-92
2020/12/19 21:12:41;;;;;;;0.82;0.80;;;;;;;;;;5277905;27;20471;-92
2020/12/19 21:15:10;;;;;;;3.72;1.35;;;;;;;;;;5278062;27;20037;-93
2020/12/19 21:17:38;;;;;;;3.47;1.10;;;;;;;;;;5261006;27;20025;-91
2020/12/19 21:20:07;;;;;;;5.60;1.60;;;;;;;;;;5295693;27;20030;-94
2020/12/19 21:22:35;;;;;;;1.95;0.95;;;;;;;;;;5295538;27;20045;-94
2020/12/19 21:25:03;;;;;;;5.55;1.45;;;;;;;;;;5296266;27;20037;-92
2020/12/19 21:27:37;;;;;;;4.97;1.00;;;;;;;;;;5279562;27;20071;-95
2020/12/19 21:30:07;;;;;;;2.72;0.70;;;;;;;;;;5283927;27;20037;-92
2020/12/19 21:32:36;;;;;;;3.08;1.00;;;;;;;;;;5298313;27;20033;-94
2020/12/19 21:35:05;;;;;;;2.60;0.85;;;;;;;;;;5302704;27;20059;-96
2020/12/19 21:37:35;;;;;;;2.03;1.15;;;;;;;;;;5279324;27;20036;-94
2020/12/19 21:40:04;;;;;;;1.25;0.62;;;;;;;;;;5278448;27;20040;-95
2020/12/19 21:42:34;;;;;;;2.30;0.90;;;;;;;;;;5276524;27;20037;-94
2020/12/19 21:45:06;;;;;;;1.37;1.17;;;;;;;;;;5292964;27;20034;-95
2020/12/19 21:47:35;;;;;;;2.42;0.88;;;;;;;;;;5275497;27;20072;-96
2020/12/19 21:50:04;;;;;;;3.58;0.98;;;;;;;;;;5276567;27;20060;-94
2020/12/19 21:52:37;;;;;;;3.22;0.98;;;;;;;;;;5274165;27;20033;-94
2020/12/19 21:55:06;;;;;;;7.25;1.80;;;;;;;;;;5276793;27;20026;-94
2020/12/19 21:57:39;;;;;;;3.90;1.17;;;;;;;;;;5294520;27;20481;-93
2020/12/19 22:00:09;;;;;;;6.45;1.10;;;;;;;;;;5276914;27;20098;-94
2020/12/19 22:02:39;;;;;;;3.80;1.00;;;;;;;;;;5275462;27;20033;-94
2020/12/19 22:05:10;;;;;;;7.80;1.15;;;;;;;;;;5292788;27;20061;-92
2020/12/19 22:07:39;;;;;;;4.68;1.02;;;;;;;;;;5298015;27;20034;-93
2020/12/19 22:10:08;;;;;;;1.50;0.60;;;;;;;;;;5293596;27;20104;-95
2020/12/19 22:12:41;;;;;;;2.50;0.88;;;;;;;;;;5275354;27;20065;-95
2020/12/19 22:15:10;;;;;;;4.70;1.40;;;;;;;;;;5276325;27;20162;-92
2020/12/19 22:21:28;;;;;;;3.17;0.75;;;;;;;;;;5280567;27;20045;-96
2020/12/19 22:24:09;;;;;;;2.00;0.90;;;;;;;;;;5297776;27;20073;-96
2020/12/19 22:26:43;;;;;;;2.87;1.27;;;;;;;;;;5278884;27;20334;-95
2020/12/19 22:29:12;;;;;;;2.03;0.90;;;;;;;;;;5279029;27;20089;-96
2020/12/19 22:31:41;;;;;;;3.00;0.95;;;;;;;;;;5277189;27;20086;-95
2020/12/19 22:34:14;;;;;;;6.65;1.67;;;;;;;;;;5271843;27;20075;-96
2020/12/19 22:36:49;;;;;;;2.07;0.97;;;;;;;;;;5279835;27;20030;-96
2020/12/19 22:39:55;;;;;;;6.32;1.17;;;;;;;;;;5280802;27;20109;-96
2020/12/19 22:42:35;;;;;;;4.10;1.62;;;;;;;;;;5282936;27;20025;-96
2020/12/19 22:45:05;;;;;;;6.53;1.50;;;;;;;;;;5280027;27;20039;-95
2020/12/19 22:47:34;;;;;;;4.65;1.52;;;;;;;;;;5277179;27;20075;-96
2020/12/19 22:50:04;;;;;;;4.90;1.45;;;;;;;;;;5277542;27;20032;-95
2020/12/19 22:52:34;;;;;;;8.60;1.87;;;;;;;;;;5278765;27;20433;-96
2020/12/19 22:55:03;;;;;;;11.57;2.28;;;;;;;;;;5282445;27;20067;-96
2020/12/19 22:57:32;;;;;;;7.45;1.87;;;;;;;;;;5283277;27;20081;-96
2020/12/19 23:00:01;;;;;;;6.78;2.00;;;;;;;;;;5288260;27;20193;-96
2020/12/19 23:02:33;;;;;;;18.40;1.83;;;;;;;;;;5282660;27;20022;-95
2020/12/19 23:05:03;;;;;;;6.85;1.75;;;;;;;;;;5283141;27;20599;-96
2020/12/19 23:07:37;;;;;;;10.38;1.73;;;;;;;;;;5283406;27;20033;-96
2020/12/19 23:10:09;;;;;;;5.25;2.25;;;;;;;;;;5286692;27;20051;-96
2020/12/19 23:12:43;;;;;;;9.93;1.37;;;;;;;;;;5279021;27;20040;-95
2020/12/19 23:15:12;;;;;;;18.30;1.50;;;;;;;;;;5280935;27;20058;-96
2020/12/19 23:17:41;;;;;;;5.68;1.35;;;;;;;;;;5282149;27;20043;-95
2020/12/19 23:20:20;;;;;;;3.37;1.37;;;;;;;;;;5282961;27;20036;-96
2020/12/19 23:23:12;;;;;;;6.05;1.60;;;;;;;;;;5284880;27;20056;-96
2020/12/19 23:25:47;;;;;;;8.35;1.62;;;;;;;;;;5267625;27;20033;-96
2020/12/19 23:28:26;;;;;;;3.55;1.75;;;;;;;;;;5285066;27;20369;-95
2020/12/19 23:31:47;;;;;;;;;;;;;;;;;;;;;
2020/12/19 23:35:09;;;;;;;3.83;1.60;;;;;;;;;;5245609;27;20037;-96
2020/12/19 23:42:38;;;;;;;;;;;;;;;;;;5153833;27;20476;-96
2020/12/19 23:45:48;;;;;;;0.90;0.82;;;;;;;;;;5168306;27;20368;-96
2020/12/19 23:49:26;;;;;;;3.33;1.20;;;;;;;;;;5058739;27;20049;-96
2020/12/19 23:56:16;;;;;;;;;;;;;;;;;;;;;
